createdAt,value
2023-05-19T00:00:17.237Z,4.00
2023-05-19T00:03:21.924Z,3.97
2023-05-19T00:06:27.766Z,3.90
2023-05-19T00:09:31.496Z,3.65
2023-05-19T00:12:34.988Z,3.63
2023-05-19T00:15:37.952Z,3.00
2023-05-19T00:18:40.792Z,3.63
2023-05-19T00:21:43.410Z,3.58
2023-05-19T00:24:45.969Z,3.72
2023-05-19T00:27:48.525Z,3.80
2023-05-19T00:30:51.918Z,3.87
2023-05-19T00:33:54.592Z,3.78
2023-05-19T00:36:57.174Z,3.40
2023-05-19T00:39:59.897Z,3.53
2023-05-19T00:43:03.027Z,3.43
2023-05-19T00:46:07.431Z,3.77
2023-05-19T00:49:10.041Z,4.10
2023-05-19T00:52:12.644Z,4.18
2023-05-19T00:55:15.487Z,4.05
2023-05-19T00:58:19.297Z,4.10
2023-05-19T01:01:22.477Z,4.47
2023-05-19T01:04:26.674Z,4.65
2023-05-19T01:07:30.199Z,3.72
2023-05-19T01:10:33.228Z,4.53
2023-05-19T01:13:36.957Z,4.57
2023-05-19T01:17:05.788Z,4.90
2023-05-19T01:20:13.970Z,5.20
2023-05-19T01:23:40.152Z,5.32
2023-05-19T01:27:06.936Z,5.68
2023-05-19T01:30:26.528Z,5.13
2023-05-19T01:33:31.341Z,6.13
2023-05-19T01:36:35.436Z,6.22
2023-05-19T01:39:40.238Z,6.85
2023-05-19T01:42:43.188Z,6.70
2023-05-19T01:45:48.475Z,5.93
2023-05-19T01:48:52.566Z,5.67
2023-05-19T01:51:56.442Z,6.07
2023-05-19T01:54:59.335Z,5.18
2023-05-19T01:58:23.096Z,5.70
2023-05-19T02:02:01.102Z,5.43
2023-05-19T02:05:12.955Z,5.20
2023-05-19T02:08:33.876Z,4.80
2023-05-19T02:11:54.996Z,5.28
2023-05-19T02:15:11.816Z,4.90
2023-05-19T02:18:17.931Z,4.87
2023-05-19T02:21:20.615Z,4.63
2023-05-19T02:24:23.481Z,4.63
2023-05-19T02:27:26.431Z,5.13
2023-05-19T02:30:29.090Z,5.25
2023-05-19T02:33:31.653Z,5.23
2023-05-19T02:36:36.699Z,5.23
2023-05-19T02:39:39.421Z,5.75
2023-05-19T02:42:42.024Z,5.25
2023-05-19T02:45:45.479Z,4.97
2023-05-19T02:48:48.105Z,5.23
2023-05-19T02:51:50.659Z,5.00
2023-05-19T02:54:53.197Z,5.80
2023-05-19T02:57:55.946Z,5.22
2023-05-19T03:00:58.535Z,5.75
2023-05-19T03:04:01.811Z,4.80
2023-05-19T03:07:06.322Z,5.73
2023-05-19T03:10:09.179Z,5.25
2023-05-19T03:13:11.837Z,5.25
2023-05-19T03:16:14.575Z,5.63
2023-05-19T03:19:18.359Z,5.87
2023-05-19T03:22:21.473Z,5.20
2023-05-19T03:25:24.394Z,5.18
2023-05-19T03:28:29.659Z,5.50
2023-05-19T03:31:32.429Z,5.63
2023-05-19T03:34:35.686Z,5.87
2023-05-19T03:37:38.664Z,6.10
2023-05-19T03:40:41.884Z,5.65
2023-05-19T03:43:46.851Z,6.10
2023-05-19T03:46:50.227Z,5.63
2023-05-19T03:49:52.713Z,6.03
2023-05-19T03:53:18.574Z,5.67
2023-05-19T03:56:23.770Z,6.72
2023-05-19T03:59:26.398Z,5.32
2023-05-19T04:02:29.028Z,4.68
2023-05-19T04:05:31.881Z,4.70
2023-05-19T04:08:35.777Z,4.17
2023-05-19T04:11:39.762Z,4.35
2023-05-19T04:14:42.345Z,3.63
2023-05-19T04:17:46.251Z,4.15
2023-05-19T04:20:49.075Z,3.47
2023-05-19T04:23:51.899Z,3.57
2023-05-19T04:26:54.467Z,3.85
2023-05-19T04:29:58.173Z,3.60
2023-05-19T04:33:01.362Z,3.53
2023-05-19T04:36:08.632Z,3.90
2023-05-19T04:39:12.428Z,3.27
2023-05-19T04:42:19.525Z,3.85
2023-05-19T04:45:23.472Z,3.25
2023-05-19T04:48:31.036Z,3.63
2023-05-19T04:51:33.724Z,3.30
2023-05-19T04:54:38.584Z,3.27
2023-05-19T04:57:41.803Z,3.70
2023-05-19T05:00:44.559Z,3.45
2023-05-19T05:03:48.095Z,3.08
2023-05-19T05:06:51.606Z,2.90
2023-05-19T05:09:55.000Z,2.90
2023-05-19T05:12:58.107Z,3.47
2023-05-19T05:16:01.036Z,3.45
2023-05-19T05:19:04.076Z,3.65
2023-05-19T05:22:07.413Z,3.67
2023-05-19T05:25:14.535Z,3.17
2023-05-19T05:28:18.775Z,3.50
2023-05-19T05:31:23.080Z,3.28
2023-05-19T05:34:25.748Z,3.60
2023-05-19T05:37:29.708Z,3.37
2023-05-19T05:40:33.458Z,4.00
2023-05-19T05:43:36.282Z,3.88
2023-05-19T05:46:40.348Z,3.45
2023-05-19T05:49:44.160Z,4.35
2023-05-19T05:52:49.107Z,3.83
2023-05-19T05:55:53.792Z,4.03
2023-05-19T05:59:00.215Z,3.80
2023-05-19T06:02:03.504Z,4.05
2023-05-19T06:05:08.276Z,4.43
2023-05-19T06:08:11.218Z,4.97
2023-05-19T06:11:14.072Z,4.10
2023-05-19T06:14:17.560Z,4.13
2023-05-19T06:17:41.009Z,5.40
2023-05-19T06:20:43.678Z,4.97
2023-05-19T06:23:46.224Z,5.40
2023-05-19T06:26:48.869Z,4.93
2023-05-19T06:29:53.309Z,4.85
2023-05-19T06:32:56.849Z,5.05
2023-05-19T06:36:01.112Z,5.03
2023-05-19T06:39:04.004Z,5.13
2023-05-19T06:42:08.181Z,5.20
2023-05-19T06:45:40.108Z,5.47
2023-05-19T06:48:44.382Z,5.22
2023-05-19T06:51:47.891Z,6.07
2023-05-19T06:54:50.832Z,5.50
2023-05-19T06:57:53.955Z,5.80
2023-05-19T07:00:57.030Z,5.68
2023-05-19T07:04:03.627Z,5.80
2023-05-19T07:07:06.529Z,6.00
2023-05-19T07:10:09.955Z,5.70
2023-05-19T07:13:12.758Z,5.60
2023-05-19T07:16:15.559Z,5.88
2023-05-19T07:19:19.902Z,5.45
2023-05-19T07:22:24.226Z,5.60
2023-05-19T07:25:28.772Z,5.37
2023-05-19T07:28:31.522Z,5.67
2023-05-19T07:31:34.254Z,5.63
2023-05-19T07:34:36.895Z,5.30
2023-05-19T07:37:39.632Z,5.55
2023-05-19T07:40:42.228Z,5.60
2023-05-19T07:43:44.796Z,5.30
2023-05-19T07:46:47.970Z,5.55
2023-05-19T07:49:51.851Z,5.35
2023-05-19T07:52:56.652Z,5.97
2023-05-19T07:56:02.074Z,5.33
2023-05-19T07:59:04.898Z,5.43
2023-05-19T08:02:07.904Z,5.30
2023-05-19T08:05:10.800Z,4.72
2023-05-19T08:08:17.857Z,4.80
2023-05-19T08:11:21.890Z,4.70
2023-05-19T08:14:25.093Z,4.30
2023-05-19T08:17:27.894Z,3.60
2023-05-19T08:20:32.079Z,3.55
2023-05-19T08:23:34.919Z,3.38
2023-05-19T08:26:38.196Z,3.07
2023-05-19T08:29:41.198Z,3.10
2023-05-19T08:32:44.830Z,2.80
2023-05-19T08:35:48.209Z,2.78
2023-05-19T08:38:51.186Z,3.17
2023-05-19T08:41:54.643Z,3.20
2023-05-19T08:44:57.660Z,3.00
2023-05-19T08:48:00.948Z,2.85
2023-05-19T08:51:33.479Z,3.47
2023-05-19T08:54:54.715Z,2.55
2023-05-19T08:57:57.649Z,3.00
2023-05-19T09:01:01.421Z,2.90
2023-05-19T09:04:04.746Z,2.50
2023-05-19T09:07:09.520Z,2.88
2023-05-19T09:10:16.315Z,2.92
2023-05-19T09:13:19.616Z,3.10
2023-05-19T09:16:22.619Z,2.70
2023-05-19T09:19:29.124Z,3.00
2023-05-19T09:22:35.738Z,2.88
2023-05-19T09:25:47.327Z,2.70
2023-05-19T09:28:49.931Z,2.50
2023-05-19T09:31:54.797Z,2.93
2023-05-19T09:34:57.373Z,3.10
2023-05-19T09:38:00.987Z,2.47
2023-05-19T09:41:05.250Z,2.58
2023-05-19T09:44:07.924Z,2.93
2023-05-19T09:47:11.767Z,3.27
2023-05-19T09:50:14.516Z,2.53
2023-05-19T09:53:19.361Z,2.53
2023-05-19T09:56:23.939Z,2.42
2023-05-19T09:59:30.531Z,2.78
2023-05-19T10:02:35.325Z,2.50
2023-05-19T10:05:38.711Z,3.03
2023-05-19T10:08:42.596Z,2.90
2023-05-19T10:11:46.095Z,2.90
2023-05-19T10:14:49.857Z,3.00
2023-05-19T10:17:53.317Z,3.20
2023-05-19T10:20:58.270Z,3.08
2023-05-19T10:24:01.177Z,3.00
2023-05-19T10:27:08.514Z,2.63
2023-05-19T10:30:16.885Z,2.80
2023-05-19T10:33:23.297Z,2.60
2023-05-19T10:36:40.935Z,2.50
2023-05-19T10:39:46.132Z,2.78
2023-05-19T10:43:19.537Z,2.60
2023-05-19T10:46:27.600Z,2.88
2023-05-19T10:49:36.672Z,3.17
2023-05-19T10:52:40.776Z,2.60
2023-05-19T10:55:49.469Z,3.03
2023-05-19T10:58:53.064Z,2.80
2023-05-19T11:01:55.722Z,3.37
2023-05-19T11:05:09.328Z,3.10
2023-05-19T11:08:12.853Z,3.05
2023-05-19T11:11:17.081Z,3.00
2023-05-19T11:14:26.760Z,3.13
2023-05-19T11:17:29.612Z,3.05
2023-05-19T11:20:34.862Z,3.03
2023-05-19T11:23:40.704Z,2.80
2023-05-19T11:26:43.911Z,2.70
2023-05-19T11:29:49.291Z,3.00
2023-05-19T11:33:01.018Z,2.50
2023-05-19T11:36:05.753Z,2.60
2023-05-19T11:39:09.600Z,2.80
2023-05-19T11:42:12.163Z,2.53
2023-05-19T11:45:14.707Z,2.80
2023-05-19T11:48:21.251Z,2.40
2023-05-19T11:51:24.423Z,2.83
2023-05-19T11:54:33.823Z,3.47
2023-05-19T11:57:36.719Z,3.17
2023-05-19T12:00:43.385Z,2.58
2023-05-19T12:03:46.607Z,2.65
2023-05-19T12:06:51.463Z,2.80
2023-05-19T12:09:55.885Z,2.85
2023-05-19T12:12:59.870Z,2.42
2023-05-19T12:16:04.778Z,2.72
2023-05-19T12:19:07.512Z,2.28
2023-05-19T12:22:10.869Z,2.60
2023-05-19T12:25:15.274Z,2.63
2023-05-19T12:28:19.813Z,2.63
2023-05-19T12:31:25.616Z,3.05
2023-05-19T12:34:28.479Z,3.30
2023-05-19T12:37:31.124Z,2.47
2023-05-19T12:40:37.800Z,2.97
2023-05-19T12:43:41.179Z,2.90
2023-05-19T12:46:44.439Z,2.85
2023-05-19T12:49:57.567Z,2.92
2023-05-19T12:53:00.346Z,3.07
2023-05-19T12:56:13.176Z,3.17
2023-05-19T12:59:30.922Z,2.60
2023-05-19T13:03:00.105Z,3.15
2023-05-19T13:06:03.024Z,3.50
2023-05-19T13:09:07.355Z,3.13
2023-05-19T13:12:09.877Z,2.58
2023-05-19T13:15:12.949Z,3.55
2023-05-19T13:18:15.530Z,3.20
2023-05-19T13:21:18.013Z,2.80
2023-05-19T13:24:20.558Z,2.87
2023-05-19T13:27:24.862Z,2.90
2023-05-19T13:30:28.367Z,2.75
2023-05-19T13:33:30.964Z,3.30
2023-05-19T13:36:35.042Z,3.92
2023-05-19T13:39:38.055Z,3.37
2023-05-19T13:42:41.624Z,3.20
2023-05-19T13:45:44.671Z,3.08
2023-05-19T13:48:47.331Z,3.30
2023-05-19T13:51:50.032Z,3.30
2023-05-19T13:54:54.643Z,3.30
2023-05-19T13:57:58.153Z,3.40
2023-05-19T14:01:01.006Z,3.60
2023-05-19T14:04:05.253Z,4.20
2023-05-19T14:07:08.392Z,4.05
2023-05-19T14:10:11.414Z,3.23
2023-05-19T14:13:31.637Z,3.22
2023-05-19T14:16:38.160Z,3.28
2023-05-19T14:19:41.194Z,3.65
2023-05-19T14:22:43.713Z,3.65
2023-05-19T14:25:46.248Z,3.97
2023-05-19T14:28:48.984Z,3.60
2023-05-19T14:31:51.750Z,3.13
2023-05-19T14:34:54.367Z,3.15
2023-05-19T14:37:56.880Z,3.22
2023-05-19T14:40:59.446Z,3.70
2023-05-19T14:44:01.979Z,3.70
2023-05-19T14:47:04.976Z,3.72
2023-05-19T14:50:07.991Z,3.28
2023-05-19T14:53:11.014Z,4.53
2023-05-19T14:56:13.565Z,4.27
2023-05-19T14:59:16.107Z,3.13
2023-05-19T15:02:18.644Z,3.75
2023-05-19T15:05:22.909Z,3.13
2023-05-19T15:08:25.883Z,3.28
2023-05-19T15:11:28.412Z,3.07
2023-05-19T15:14:31.419Z,3.33
2023-05-19T15:17:34.193Z,3.97
2023-05-19T15:20:36.921Z,3.55
2023-05-19T15:23:39.602Z,3.53
2023-05-19T15:26:42.161Z,3.77
2023-05-19T15:29:44.853Z,3.20
2023-05-19T15:32:47.430Z,3.08
2023-05-19T15:35:52.091Z,3.65
2023-05-19T15:38:54.684Z,3.75
2023-05-19T15:41:57.226Z,3.50
2023-05-19T15:44:59.833Z,4.00
2023-05-19T15:48:03.396Z,3.50
2023-05-19T15:51:06.214Z,3.80
2023-05-19T15:54:08.712Z,3.70
2023-05-19T15:57:11.339Z,3.37
2023-05-19T16:00:14.492Z,3.10
2023-05-19T16:03:17.092Z,3.30
2023-05-19T16:06:20.623Z,3.00
2023-05-19T16:09:23.188Z,2.83
2023-05-19T16:12:27.530Z,3.13
2023-05-19T16:15:30.179Z,2.92
2023-05-19T16:18:32.752Z,2.97
2023-05-19T16:21:35.256Z,3.33
2023-05-19T16:24:37.726Z,2.85
2023-05-19T16:27:40.236Z,3.17
2023-05-19T16:30:43.210Z,3.63
2023-05-19T16:33:46.273Z,3.47
2023-05-19T16:36:48.919Z,3.35
2023-05-19T16:39:51.408Z,3.10
2023-05-19T16:42:54.125Z,3.17
2023-05-19T16:45:57.176Z,3.20
2023-05-19T16:48:59.811Z,3.60
2023-05-19T16:52:02.309Z,3.75
2023-05-19T16:55:06.018Z,3.05
2023-05-19T16:58:10.629Z,3.03
2023-05-19T17:01:13.229Z,2.88
2023-05-19T17:04:15.924Z,3.67
2023-05-19T17:07:18.612Z,3.30
2023-05-19T17:10:21.185Z,3.30
2023-05-19T17:13:23.784Z,3.33
2023-05-19T17:16:26.468Z,3.38
2023-05-19T17:19:29.181Z,3.47
2023-05-19T17:22:31.921Z,3.55
2023-05-19T17:25:34.783Z,3.10
2023-05-19T17:28:37.449Z,3.50
2023-05-19T17:31:40.107Z,3.47
2023-05-19T17:34:42.649Z,3.30
2023-05-19T17:37:45.137Z,3.83
2023-05-19T17:40:47.882Z,3.70
2023-05-19T17:43:50.756Z,3.33
2023-05-19T17:46:53.428Z,3.80
2023-05-19T17:49:56.021Z,3.60
2023-05-19T17:52:58.925Z,3.90
2023-05-19T17:56:03.581Z,4.30
2023-05-19T17:59:06.858Z,3.83
2023-05-19T18:02:10.037Z,4.07
2023-05-19T18:05:13.336Z,4.30
2023-05-19T18:08:16.771Z,4.22
2023-05-19T18:11:19.682Z,4.13
2023-05-19T18:14:22.163Z,4.20
2023-05-19T18:17:24.764Z,4.50
2023-05-19T18:20:27.356Z,4.38
2023-05-19T18:23:30.177Z,4.57
2023-05-19T18:26:33.653Z,4.70
2023-05-19T18:29:36.202Z,4.10
2023-05-19T18:32:38.934Z,4.50
2023-05-19T18:35:41.497Z,5.22
2023-05-19T18:38:44.086Z,4.95
2023-05-19T18:41:47.616Z,5.10
2023-05-19T18:44:50.817Z,5.40
2023-05-19T18:47:54.642Z,5.28
2023-05-19T18:50:57.398Z,5.32
2023-05-19T18:54:00.191Z,5.35
2023-05-19T18:57:03.626Z,5.80
2023-05-19T19:00:06.866Z,5.50
2023-05-19T19:03:11.937Z,6.07
2023-05-19T19:06:17.115Z,6.68
2023-05-19T19:09:19.786Z,6.03
2023-05-19T19:12:22.341Z,5.43
2023-05-19T19:15:25.477Z,5.37
2023-05-19T19:18:28.128Z,5.32
2023-05-19T19:21:31.886Z,5.22
2023-05-19T19:24:34.433Z,5.50
2023-05-19T19:27:37.329Z,5.03
2023-05-19T19:30:39.933Z,5.30
2023-05-19T19:33:43.582Z,5.80
2023-05-19T19:36:47.911Z,5.32
2023-05-19T19:39:50.607Z,5.70
2023-05-19T19:42:53.153Z,5.80
2023-05-19T19:46:00.803Z,5.70
2023-05-19T19:49:03.510Z,5.88
2023-05-19T19:52:06.132Z,6.55
2023-05-19T19:55:09.895Z,6.60
2023-05-19T19:58:12.915Z,7.30
2023-05-19T20:01:16.167Z,7.03
2023-05-19T20:04:18.849Z,8.32
2023-05-19T20:07:23.365Z,8.48
2023-05-19T20:10:26.081Z,9.40
2023-05-19T20:13:30.012Z,11.03
2023-05-19T20:16:33.988Z,10.50
2023-05-19T20:19:36.661Z,7.50
2023-05-19T20:22:39.520Z,5.88
2023-05-19T20:25:58.518Z,5.20
2023-05-19T20:29:05.200Z,5.53
2023-05-19T20:32:07.650Z,5.20
2023-05-19T20:35:10.259Z,5.95
2023-05-19T20:38:12.810Z,5.75
2023-05-19T20:41:15.487Z,5.80
2023-05-19T20:44:18.039Z,5.70
2023-05-19T20:47:21.154Z,5.30
2023-05-19T20:50:23.698Z,5.72
2023-05-19T20:53:26.524Z,5.50
2023-05-19T20:56:29.075Z,5.45
2023-05-19T20:59:32.145Z,5.10
2023-05-19T21:02:34.740Z,5.43
2023-05-19T21:05:37.306Z,5.43
2023-05-19T21:08:39.799Z,5.28
2023-05-19T21:11:42.364Z,5.55
2023-05-19T21:14:44.941Z,5.60
2023-05-19T21:17:47.669Z,5.30
2023-05-19T21:20:50.798Z,5.13
2023-05-19T21:23:53.361Z,5.22
2023-05-19T21:26:55.926Z,5.05
2023-05-19T21:29:58.479Z,5.20
2023-05-19T21:33:01.089Z,5.47
2023-05-19T21:36:03.752Z,5.68
2023-05-19T21:39:06.407Z,5.35
2023-05-19T21:42:09.057Z,5.43
2023-05-19T21:45:11.739Z,5.63
2023-05-19T21:48:14.233Z,6.03
2023-05-19T21:51:16.865Z,5.88
2023-05-19T21:54:19.380Z,6.20
2023-05-19T21:57:21.854Z,5.63
2023-05-19T22:00:25.880Z,5.73
2023-05-19T22:03:28.964Z,5.60
2023-05-19T22:06:31.672Z,5.68
2023-05-19T22:09:34.527Z,5.85
2023-05-19T22:12:37.192Z,5.20
2023-05-19T22:15:39.732Z,5.53
2023-05-19T22:18:42.627Z,5.83
2023-05-19T22:21:45.207Z,5.57
2023-05-19T22:24:47.738Z,5.15
2023-05-19T22:27:50.464Z,6.00
2023-05-19T22:30:52.962Z,6.63
2023-05-19T22:33:56.060Z,6.53
2023-05-19T22:36:58.690Z,6.45
2023-05-19T22:40:01.165Z,6.47
2023-05-19T22:43:03.721Z,6.55
2023-05-19T22:46:06.437Z,5.63
2023-05-19T22:49:08.956Z,6.23
2023-05-19T22:52:11.524Z,6.28
2023-05-19T22:55:14.060Z,5.82
2023-05-19T22:58:16.582Z,5.75
2023-05-19T23:01:19.142Z,6.30
2023-05-19T23:04:21.915Z,5.70
2023-05-19T23:07:24.506Z,6.28
2023-05-19T23:10:27.058Z,6.60
2023-05-19T23:13:34.146Z,5.82
2023-05-19T23:16:36.611Z,6.40
2023-05-19T23:19:39.176Z,6.07
2023-05-19T23:22:41.951Z,6.18
2023-05-19T23:25:44.515Z,5.57
2023-05-19T23:28:47.292Z,6.13
2023-05-19T23:31:49.832Z,5.33
2023-05-19T23:34:52.405Z,5.73
2023-05-19T23:37:54.999Z,5.85
2023-05-19T23:40:57.590Z,5.90
2023-05-19T23:44:00.132Z,5.63
2023-05-19T23:47:02.772Z,5.53
2023-05-19T23:50:05.784Z,6.13
2023-05-19T23:53:12.484Z,6.35
2023-05-19T23:56:15.057Z,6.20
2023-05-19T23:59:17.530Z,5.80
